Latest Weather Observations for Sydney Olympic Park

IDN60901

Issued at 5:11 pm EST Sunday 24 May 2015 (issued every 10 minutes, with the page automatically refreshed every 10 minutes)

About weather observations | Map of Sydney area stations | Latest observations for Sydney area | Other Formats
Station Details ID: 066212 Name: SYDNEY OLYMPIC PARK AWS (ARCHERY CENTRE) Lat: -33.83 Lon: 151.07 Height: 4.0 m
Data from the previous 72 hours. | See also: Recent months at Sydney Olympic Park
Date/Time
EST
Tmp

°C
App
Tmp
°C
Dew
Point
°C
Rel
Hum
%
Delta-T

°C
Wind Press
QNH
hPa
Press
MSL
hPa
Rain
since
9 am
mm
Dir
 
Spd
km/h
Gust
km/h
Spd
kts
Gust
kts
24/05:00pm 13.9 12.4 8.5 70 2.7 SSE 6 7 3 4 - - 0.0
24/04:30pm 16.2 14.5 8.2 59 4.0 SE 7 9 4 5 - - 0.0
24/04:00pm 18.3 17.8 8.0 51 5.3 CALM 0 0 0 0 - - 0.0
24/03:30pm 18.7 17.9 8.1 50 5.4 N 2 7 1 4 - - 0.0
24/03:00pm 18.6 17.4 6.4 45 6.1 W 2 7 1 4 - - 0.0
24/02:30pm 18.6 17.5 7.1 47 5.8 NE 2 7 1 4 - - 0.0
24/02:00pm 18.6 16.9 7.4 48 5.7 E 6 9 3 5 - - 0.0
24/01:30pm 18.1 17.1 7.2 49 5.5 E 2 6 1 3 - - 0.0
24/01:00pm 18.6 16.8 8.0 50 5.4 W 7 11 4 6 - - 0.0
24/12:30pm 18.4 17.3 8.4 52 5.2 NW 4 7 2 4 - - 0.0
24/12:00pm 17.1 15.1 7.2 52 4.9 W 7 11 4 6 - - 0.0
24/11:30am 15.9 13.5 7.1 56 4.3 W 9 13 5 7 - - 0.0
24/11:00am 14.8 12.4 7.1 60 3.8 WSW 9 13 5 7 - - 0.0
24/10:30am 14.1 12.3 8.1 67 3.0 W 7 13 4 7 - - 0.0
24/10:00am 13.0 10.8 7.9 71 2.5 SW 9 13 5 7 - - 0.0
24/09:00am 11.5 9.0 8.2 80 1.6 WNW 11 15 6 8 - - 0.0
24/08:30am 10.2 7.7 8.3 88 0.9 WNW 11 17 6 9 - - 0.0
24/08:00am 8.7 6.6 8.3 97 0.2 WNW 9 15 5 8 - - 0.0
24/07:30am 7.5 4.8 7.2 98 0.1 WNW 11 17 6 9 - - 0.0
24/07:00am 7.1 4.3 6.8 98 0.1 NW 11 15 6 8 - - 0.0
24/06:30am 6.7 4.7 6.3 97 0.2 NW 6 7 3 4 - - 0.0
24/05:30am 7.4 5.0 6.8 96 0.3 WNW 9 13 5 7 - - 0.0
24/05:00am 7.7 5.0 7.3 97 0.2 NW 11 13 6 7 - - 0.0
24/04:30am 7.8 5.1 7.4 97 0.2 WNW 11 15 6 8 - - 0.0
24/04:00am 7.7 5.0 7.3 97 0.2 NW 11 17 6 9 - - 0.0
24/03:30am 7.6 5.2 7.2 97 0.2 WNW 9 11 5 6 - - 0.0
24/03:00am 7.7 5.4 7.4 98 0.1 NW 9 13 5 7 - - 0.0
24/02:30am 7.7 6.0 7.4 98 0.1 NW 6 9 3 5 - - 0.0
24/02:00am 7.7 6.7 7.4 98 0.1 NW 2 6 1 3 - - 0.0
24/01:30am 7.8 5.9 7.5 98 0.1 NW 7 9 4 5 - - 0.0
24/01:00am 7.7 6.3 7.3 97 0.2 WNW 4 7 2 4 - - 0.0
24/12:30am 7.8 7.2 7.4 97 0.2 CALM 0 0 0 0 - - 0.0
24/12:00am 8.0 7.4 7.6 97 0.2 CALM 0 0 0 0 - - 0.0
 
Date/Time
EST
Tmp

°C
App
Tmp
°C
Dew
Point
°C
Rel
Hum
%
Delta-T

°C
Wind Press
QNH
hPa
Press
MSL
hPa
Rain
since
9 am
mm
Dir
 
Spd
km/h
Gust
km/h
Spd
kts
Gust
kts
23/11:30pm 8.1 6.4 7.5 96 0.3 WNW 6 7 3 4 - - 0.0
23/11:00pm 8.5 6.9 8.1 97 0.2 WNW 6 7 3 4 - - 0.0
23/10:30pm 8.5 6.7 8.1 97 0.2 NW 7 9 4 5 - - 0.0
23/10:00pm 8.4 6.6 7.8 96 0.3 WNW 7 9 4 5 - - 0.0
23/09:30pm 8.3 7.7 7.5 95 0.4 CALM 0 0 0 0 - - 0.0
23/09:00pm 8.5 7.9 7.6 94 0.4 CALM 0 0 0 0 - - 0.0
23/08:30pm 8.9 8.4 8.0 94 0.4 CALM 0 0 0 0 - - 0.0
23/08:00pm 9.3 8.9 8.1 92 0.6 CALM 0 0 0 0 - - 0.0
23/07:30pm 9.7 9.3 8.1 90 0.8 CALM 0 0 0 0 - - 0.0
23/07:00pm 10.4 10.1 8.8 90 0.8 CALM 0 0 0 0 - - 0.0
23/06:30pm 10.7 9.9 8.1 84 1.3 SE 2 9 1 5 - - 0.0
23/06:00pm 12.0 10.1 6.9 71 2.4 SE 6 6 3 3 - - 0.0
23/05:30pm 13.5 11.6 6.8 64 3.2 SSE 6 7 3 4 - - 0.0
23/05:00pm 14.7 12.4 7.3 61 3.6 SE 9 11 5 6 - - 0.0
23/04:30pm 15.7 13.0 7.5 58 4.1 SSE 11 19 6 10 - - 0.0
23/04:00pm 16.6 13.5 7.3 54 4.6 SSE 13 20 7 11 - - 0.0
23/03:30pm 17.0 14.0 7.6 54 4.7 SSE 13 20 7 11 - - 0.0
23/03:00pm 17.6 14.2 7.6 52 5.0 SSE 15 22 8 12 - - 0.0
23/02:30pm 17.9 14.9 7.6 51 5.2 S 13 20 7 11 - - 0.0
23/02:00pm 17.7 14.8 8.0 53 4.9 S 13 26 7 14 - - 0.0
23/01:30pm 17.8 15.0 8.6 55 4.7 SSE 13 20 7 11 - - 0.0
23/01:00pm 17.2 14.0 8.4 56 4.5 S 15 24 8 13 - - 0.0
23/12:30pm 17.9 15.3 7.9 52 5.1 SSW 11 20 6 11 - - 0.0
23/12:00pm 17.4 13.5 8.5 56 4.6 S 19 30 10 16 - - 0.0
23/11:30am 17.0 14.1 8.2 56 4.5 SSW 13 17 7 9 - - 0.0
23/11:00am 16.2 14.1 8.4 60 4.0 SW 9 13 5 7 - - 0.0
23/10:30am 15.8 12.9 8.1 60 3.9 SW 13 20 7 11 - - 0.0
23/10:00am 14.5 11.3 6.8 60 3.7 WSW 13 24 7 13 - - 0.0
23/09:30am 14.0 10.8 6.8 62 3.5 WSW 13 24 7 13 - - 0.0
23/09:00am 12.9 10.0 6.5 65 3.1 WSW 11 20 6 11 - - 28.0
23/08:30am 12.0 8.7 6.3 68 2.7 WSW 13 20 7 11 - - 28.0
23/08:00am 11.8 8.8 6.1 68 2.7 SW 11 19 6 10 - - 28.0
23/07:30am 11.5 9.1 6.8 73 2.2 WSW 9 17 5 9 - - 28.0
23/07:00am 11.2 8.9 7.3 77 1.9 WSW 9 17 5 9 - - 28.0
23/06:30am 10.9 8.6 7.6 80 1.6 WSW 9 17 5 9 - - 28.0
23/06:00am 10.3 8.1 7.9 85 1.2 WSW 9 17 5 9 - - 28.0
23/05:30am 9.6 8.0 8.0 90 0.8 W 6 9 3 5 - - 28.0
23/05:00am 9.8 7.8 8.6 92 0.6 WNW 9 13 5 7 - - 28.0
23/04:30am 10.2 9.3 9.1 93 0.5 WNW 4 9 2 5 - - 28.0
23/04:00am 10.9 9.8 10.0 94 0.5 W 6 9 3 5 - - 28.0
23/03:30am 11.0 10.0 10.4 96 0.3 W 6 9 3 5 - - 28.0
23/03:00am 11.5 10.7 11.0 97 0.3 WNW 6 7 3 4 - - 28.0
23/02:30am 11.4 10.4 10.9 97 0.3 WSW 7 13 4 7 - - 27.8
23/02:17am 11.5 10.2 11.2 98 0.2 W 9 15 5 8 - - 27.8
23/02:00am 11.6 10.3 11.3 98 0.2 WSW 9 19 5 10 - - 27.8
23/01:40am 11.7 10.4 11.4 98 0.2 WSW 9 13 5 7 - - 27.0
23/01:30am 11.6 10.3 11.3 98 0.2 WSW 9 15 5 8 - - 27.0
23/01:17am 11.6 10.3 11.3 98 0.2 WSW 9 17 5 9 - - 26.8
23/01:00am 11.6 9.9 11.3 98 0.2 WSW 11 19 6 10 - - 26.8
23/12:53am 11.6 9.9 11.3 98 0.2 WSW 11 24 6 13 - - 26.8
23/12:49am 11.6 9.9 11.3 98 0.2 W 11 24 6 13 - - 26.6
23/12:30am 11.5 10.1 11.0 97 0.3 W 9 15 5 8 - - 26.4
23/12:28am 11.5 10.1 11.0 97 0.3 W 9 15 5 8 - - 26.4
23/12:22am 11.5 10.5 11.0 97 0.3 W 7 13 4 7 - - 26.4
23/12:12am 11.6 10.3 11.1 97 0.3 WSW 9 17 5 9 - - 26.2
23/12:00am 11.5 10.1 10.9 96 0.3 WSW 9 15 5 8 - - 26.2
 
Date/Time
EST
Tmp

°C
App
Tmp
°C
Dew
Point
°C
Rel
Hum
%
Delta-T

°C
Wind Press
QNH
hPa
Press
MSL
hPa
Rain
since
9 am
mm
Dir
 
Spd
km/h
Gust
km/h
Spd
kts
Gust
kts
22/11:54pm 11.6 10.3 11.1 97 0.3 WSW 9 15 5 8 - - 26.2
22/11:40pm 11.7 10.4 11.1 96 0.3 WSW 9 17 5 9 - - 26.0
22/11:30pm 11.7 10.7 11.1 96 0.3 WSW 7 13 4 7 - - 25.6
22/11:10pm 11.7 10.8 11.2 97 0.3 W 7 15 4 8 - - 25.4
22/11:00pm 11.8 11.1 11.3 97 0.3 W 6 11 3 6 - - 25.4
22/10:44pm 11.7 10.8 11.2 97 0.3 SW 7 13 4 7 - - 25.0
22/10:30pm 11.8 10.5 11.3 97 0.3 W 9 13 5 7 - - 24.4
22/10:26pm 11.8 10.5 11.3 97 0.3 W 9 13 5 7 - - 24.4
22/10:06pm 11.8 10.5 11.3 97 0.3 WSW 9 17 5 9 - - 23.8
22/10:00pm 11.8 10.5 11.3 97 0.3 WSW 9 15 5 8 - - 23.8
22/09:30pm 11.9 9.9 11.4 97 0.3 WSW 13 20 7 11 - - 23.2
22/09:29pm 11.9 9.9 11.4 97 0.3 WSW 13 20 7 11 - - 23.2
22/09:13pm 11.9 9.9 11.4 97 0.3 WSW 13 20 7 11 - - 23.0
22/09:00pm 11.9 10.3 11.4 97 0.3 WSW 11 20 6 11 - - 22.8
22/08:30pm 11.9 10.2 11.3 96 0.3 WSW 11 17 6 9 - - 22.6
22/08:04pm 12.0 10.8 11.5 97 0.3 W 9 17 5 9 - - 22.6
22/08:00pm 12.0 10.8 11.5 97 0.3 W 9 13 5 7 - - 22.6
22/07:30pm 12.2 10.6 11.4 95 0.4 SW 11 20 6 11 - - 21.2
22/07:25pm 12.3 11.1 11.5 95 0.4 WSW 9 17 5 9 - - 21.0
22/07:07pm 12.3 11.4 11.4 94 0.5 WSW 7 13 4 7 - - 20.2
22/07:00pm 12.3 11.0 11.4 94 0.5 SW 9 17 5 9 - - 20.2
22/06:45pm 12.5 11.2 11.4 93 0.6 SSW 9 17 5 9 - - 19.4
22/06:30pm 12.5 10.8 11.2 92 0.7 SW 11 19 6 10 - - 19.2
22/06:00pm 12.5 10.5 11.4 93 0.6 SW 13 20 7 11 - - 18.6
22/05:30pm 12.9 10.9 11.6 92 0.7 WSW 13 20 7 11 - - 17.0
22/05:00pm 13.1 10.8 11.7 91 0.7 SW 15 24 8 13 - - 17.0
22/04:30pm 13.4 11.3 11.3 87 1.1 SW 13 22 7 12 - - 16.8
22/04:15pm 13.7 12.1 11.7 88 1.1 WSW 11 19 6 10 - - 16.6
22/04:00pm 13.8 10.6 11.1 84 1.4 SSW 19 30 10 16 - - 16.4
22/03:41pm 15.9 12.3 9.8 67 3.2 S 19 35 10 19 - - 15.8
22/03:30pm 16.2 11.6 9.6 65 3.4 S 24 44 13 24 - - 15.8
22/03:09pm 16.7 11.0 8.4 58 4.2 S 28 46 15 25 - - 15.8
22/03:00pm 17.1 12.7 8.8 58 4.3 S 22 41 12 22 - - 15.8
22/02:30pm 16.2 12.4 9.8 66 3.3 SSW 20 41 11 22 - - 15.8
22/02:00pm 15.3 11.6 10.1 71 2.7 SSW 20 44 11 24 - - 15.8
22/01:30pm 15.8 11.4 10.3 70 2.9 SSW 24 35 13 19 - - 15.6
22/01:00pm 16.3 12.7 10.4 68 3.1 SSW 20 33 11 18 - - 15.6
22/12:42pm 16.5 11.1 9.4 63 3.7 SSW 28 46 15 25 - - 15.6
22/12:30pm 16.1 10.9 10.4 69 3.0 SSW 28 41 15 22 - - 15.6
22/12:00pm 16.4 12.0 10.5 68 3.1 S 24 39 13 21 - - 15.6
22/11:30am 15.9 11.1 11.5 75 2.4 S 28 50 15 27 - - 15.6
22/11:29am 15.9 11.1 11.5 75 2.4 S 28 50 15 27 - - 15.6
22/11:10am 15.3 11.6 12.8 85 1.4 S 24 43 13 23 - - 15.6
22/11:00am 15.3 12.1 13.1 87 1.2 S 22 41 12 22 - - 15.6
22/10:30am 14.3 13.3 13.5 95 0.4 SSW 11 22 6 12 - - 7.4
22/10:00am 14.2 13.6 13.6 96 0.3 SW 9 17 5 9 - - 2.2
22/09:51am 14.4 13.8 13.6 95 0.4 WSW 9 13 5 7 - - 0.4
22/09:30am 14.4 13.7 13.3 93 0.6 SW 9 17 5 9 - - 0.2
22/09:26am 14.3 13.2 13.2 93 0.6 SW 11 17 6 9 - - 0.2
22/09:00am 13.6 12.6 13.3 98 0.2 WSW 11 20 6 11 - - 10.6
22/08:30am 13.1 12.2 12.5 96 0.3 WSW 9 19 5 10 - - 9.2
22/08:00am 12.8 11.3 11.9 94 0.5 SW 11 19 6 10 - - 6.4
22/07:30am 12.8 11.2 11.7 93 0.6 WSW 11 17 6 9 - - 4.2
22/07:00am 12.8 11.2 11.5 92 0.7 WSW 11 19 6 10 - - 2.4
22/06:30am 13.0 10.9 11.1 88 1.0 WSW 13 20 7 11 - - 1.0
22/06:28am 13.0 10.9 11.1 88 1.0 WSW 13 20 7 11 - - 1.0
22/06:00am 14.3 12.6 9.7 74 2.4 SW 9 17 5 9 - - 0.0
22/05:30am 14.1 12.3 9.3 73 2.4 WSW 9 15 5 8 - - 0.0
22/05:00am 13.9 12.0 9.1 73 2.4 WSW 9 15 5 8 - - 0.0
22/04:30am 14.0 12.1 9.0 72 2.5 W 9 17 5 9 - - 0.0
22/04:00am 13.8 12.2 8.8 72 2.5 W 7 13 4 7 - - 0.0
22/03:30am 13.6 11.7 9.1 74 2.3 W 9 13 5 7 - - 0.0
22/03:00am 12.9 11.5 9.5 80 1.7 WNW 7 13 4 7 - - 0.0
22/02:30am 12.5 11.1 9.5 82 1.5 WNW 7 11 4 6 - - 0.0
22/02:00am 12.4 11.0 9.6 83 1.4 WNW 7 11 4 6 - - 0.0
22/01:30am 11.8 11.1 10.0 89 0.9 WNW 4 9 2 5 - - 0.0
22/01:00am 11.9 12.0 10.1 89 0.9 CALM 0 0 0 0 - - 0.0
22/12:30am 12.5 11.8 10.2 86 1.2 W 4 7 2 4 - - 0.0
22/12:00am 12.7 12.0 10.1 84 1.3 W 4 7 2 4 - - 0.0
 
Date/Time
EST
Tmp

°C
App
Tmp
°C
Dew
Point
°C
Rel
Hum
%
Delta-T

°C
Wind Press
QNH
hPa
Press
MSL
hPa
Rain
since
9 am
mm
Dir
 
Spd
km/h
Gust
km/h
Spd
kts
Gust
kts
21/11:30pm 13.1 12.0 10.1 82 1.5 WNW 6 9 3 5 - - 0.0
21/11:00pm 13.9 12.9 10.3 79 1.9 W 6 11 3 6 - - 0.0
21/10:30pm 14.3 13.2 10.7 79 1.9 W 7 15 4 8 - - 0.0
21/10:00pm 14.7 13.9 11.1 79 1.9 W 6 9 3 5 - - 0.0
21/09:30pm 15.5 14.9 11.7 78 2.1 SW 6 11 3 6 - - 0.0
21/09:00pm 15.7 14.0 12.5 81 1.8 SSW 13 22 7 12 - - 0.0
21/08:30pm 15.1 14.6 12.1 82 1.6 SSE 6 11 3 6 - - 0.0
21/08:00pm 15.7 13.8 11.9 78 2.1 S 13 22 7 12 - - 0.0
21/07:30pm 16.2 14.5 12.4 78 2.1 SSW 13 22 7 12 - - 0.0
21/07:00pm 16.2 14.9 12.4 78 2.1 S 11 20 6 11 - - 0.0
21/06:30pm 16.8 13.8 11.9 73 2.7 S 19 33 10 18 - - 0.0
21/06:00pm 17.3 15.3 11.6 69 3.1 SSE 13 24 7 13 - - 0.0
21/05:30pm 17.7 16.5 11.5 67 3.4 S 9 13 5 7 - - 0.0

Latest Capital City Observations: Canberra | Sydney | Melbourne | Brisbane | Adelaide | Perth | Hobart | Darwin

Other Formats:

Comma delimited format used in spreadsheet applications
http://www.bom.gov.au/fwo/IDN60901/IDN60901.95765.axf

JavaScript Object Notation format (JSON) in row-major order
http://www.bom.gov.au/fwo/IDN60901/IDN60901.95765.json